sensor_id;sensor_type;location;lat;lon;timestamp;pressure;altitude;pressure_sealevel;temperature;humidity
13124;BME280;6627;50.920;12.050;2022-09-13T00:02:21;98225.50;;;23.07;48.07
13124;BME280;6627;50.920;12.050;2022-09-13T00:04:48;98214.38;;;23.28;47.36
13124;BME280;6627;50.920;12.050;2022-09-13T00:07:17;98243.63;;;23.29;47.79
13124;BME280;6627;50.920;12.050;2022-09-13T00:09:44;98240.06;;;23.25;47.51
13124;BME280;6627;50.920;12.050;2022-09-13T00:12:11;98294.06;;;23.76;47.32
13124;BME280;6627;50.920;12.050;2022-09-13T00:14:39;98251.88;;;23.44;47.28
13124;BME280;6627;50.920;12.050;2022-09-13T00:17:07;98272.75;;;23.59;47.28
13124;BME280;6627;50.920;12.050;2022-09-13T00:19:34;98305.38;;;24.17;46.21
13124;BME280;6627;50.920;12.050;2022-09-13T00:22:01;98300.66;;;24.04;46.34
13124;BME280;6627;50.920;12.050;2022-09-13T00:24:30;98317.22;;;24.18;46.49
13124;BME280;6627;50.920;12.050;2022-09-13T00:26:57;98290.41;;;24.01;46.95
13124;BME280;6627;50.920;12.050;2022-09-13T00:29:24;98275.91;;;23.68;47.52
13124;BME280;6627;50.920;12.050;2022-09-13T00:31:51;98259.38;;;23.36;48.32
13124;BME280;6627;50.920;12.050;2022-09-13T00:34:18;98301.97;;;23.74;48.40
13124;BME280;6627;50.920;12.050;2022-09-13T00:36:45;98368.47;;;24.55;46.54
13124;BME280;6627;50.920;12.050;2022-09-13T00:39:13;98344.50;;;24.16;47.45
13124;BME280;6627;50.920;12.050;2022-09-13T00:41:41;98238.09;;;23.19;48.77
13124;BME280;6627;50.920;12.050;2022-09-13T00:44:53;98240.44;;;23.27;48.42
13124;BME280;6627;50.920;12.050;2022-09-13T00:47:29;98302.72;;;23.85;47.72
13124;BME280;6627;50.920;12.050;2022-09-13T00:50:07;98354.34;;;24.24;47.42
13124;BME280;6627;50.920;12.050;2022-09-13T00:52:40;98187.63;;;22.89;49.17
13124;BME280;6627;50.920;12.050;2022-09-13T00:55:18;98248.38;;;23.11;49.07
13124;BME280;6627;50.920;12.050;2022-09-13T00:57:49;98244.41;;;23.05;49.46
13124;BME280;6627;50.920;12.050;2022-09-13T01:00:18;98170.63;;;23.02;48.25
13124;BME280;6627;50.920;12.050;2022-09-13T01:02:50;98261.69;;;23.59;47.58
13124;BME280;6627;50.920;12.050;2022-09-13T01:05:24;98307.78;;;24.05;46.67
13124;BME280;6627;50.920;12.050;2022-09-13T01:07:55;98258.53;;;23.71;47.07
13124;BME280;6627;50.920;12.050;2022-09-13T01:10:22;98244.75;;;23.42;48.07
13124;BME280;6627;50.920;12.050;2022-09-13T01:12:58;98249.84;;;23.62;47.37
13124;BME280;6627;50.920;12.050;2022-09-13T01:15:27;98204.88;;;23.36;47.54
13124;BME280;6627;50.920;12.050;2022-09-13T01:17:55;98212.81;;;23.27;47.99
13124;BME280;6627;50.920;12.050;2022-09-13T01:20:39;98190.38;;;23.11;48.37
13124;BME280;6627;50.920;12.050;2022-09-13T01:23:36;98100.06;;;21.94;50.08
13124;BME280;6627;50.920;12.050;2022-09-13T01:26:34;98049.97;;;21.56;50.49
13124;BME280;6627;50.920;12.050;2022-09-13T01:32:29;98165.13;;;22.73;48.89
13124;BME280;6627;50.920;12.050;2022-09-13T01:35:15;98074.81;;;21.70;50.17
13124;BME280;6627;50.920;12.050;2022-09-13T01:37:53;98114.25;;;22.03;50.23
13124;BME280;6627;50.920;12.050;2022-09-13T01:40:47;98133.59;;;22.17;49.70
13124;BME280;6627;50.920;12.050;2022-09-13T01:43:34;98145.03;;;22.37;49.26
13124;BME280;6627;50.920;12.050;2022-09-13T01:46:08;98114.25;;;22.03;49.57
13124;BME280;6627;50.920;12.050;2022-09-13T01:48:54;98185.66;;;22.69;49.03
13124;BME280;6627;50.920;12.050;2022-09-13T01:51:31;98176.56;;;22.79;48.18
13124;BME280;6627;50.920;12.050;2022-09-13T01:54:17;98160.41;;;22.49;48.87
13124;BME280;6627;50.920;12.050;2022-09-13T01:56:56;98025.03;;;21.06;50.71
13124;BME280;6627;50.920;12.050;2022-09-13T01:59:38;98167.03;;;21.98;50.61
13124;BME280;6627;50.920;12.050;2022-09-13T02:02:15;98178.94;;;22.37;49.79
13124;BME280;6627;50.920;12.050;2022-09-13T02:04:51;98097.28;;;21.94;49.77
13124;BME280;6627;50.920;12.050;2022-09-13T02:07:26;98193.91;;;22.83;48.74
13124;BME280;6627;50.920;12.050;2022-09-13T02:10:02;98138.72;;;22.29;49.79
13124;BME280;6627;50.920;12.050;2022-09-13T02:12:33;98169.47;;;22.42;49.92
13124;BME280;6627;50.920;12.050;2022-09-13T02:15:11;98199.03;;;22.77;49.60
13124;BME280;6627;50.920;12.050;2022-09-13T02:17:45;98132.38;;;22.11;49.92
13124;BME280;6627;50.920;12.050;2022-09-13T02:20:24;98139.50;;;22.19;50.17
13124;BME280;6627;50.920;12.050;2022-09-13T02:22:59;98131.63;;;22.21;50.07
13124;BME280;6627;50.920;12.050;2022-09-13T02:25:32;98129.66;;;22.18;50.50
13124;BME280;6627;50.920;12.050;2022-09-13T02:28:09;98142.66;;;22.25;50.64
13124;BME280;6627;50.920;12.050;2022-09-13T02:30:42;98175.78;;;22.46;50.71
13124;BME280;6627;50.920;12.050;2022-09-13T02:33:18;98129.59;;;21.93;51.40
13124;BME280;6627;50.920;12.050;2022-09-13T02:35:52;98268.09;;;23.13;49.97
13124;BME280;6627;50.920;12.050;2022-09-13T02:38:25;98268.06;;;23.34;49.13
13124;BME280;6627;50.920;12.050;2022-09-13T02:40:59;98157.63;;;22.52;50.19
13124;BME280;6627;50.920;12.050;2022-09-13T02:43:34;98217.59;;;23.16;49.15
13124;BME280;6627;50.920;12.050;2022-09-13T02:46:19;98214.44;;;22.96;49.79
13124;BME280;6627;50.920;12.050;2022-09-13T02:48:59;98210.91;;;22.96;49.86
13124;BME280;6627;50.920;12.050;2022-09-13T02:51:40;98205.00;;;22.94;49.79
13124;BME280;6627;50.920;12.050;2022-09-13T02:54:22;98198.63;;;22.75;50.32
13124;BME280;6627;50.920;12.050;2022-09-13T02:56:58;98217.56;;;23.30;48.92
13124;BME280;6627;50.920;12.050;2022-09-13T02:59:27;98184.06;;;22.92;49.43
13124;BME280;6627;50.920;12.050;2022-09-13T03:02:02;98230.13;;;23.53;48.41
13124;BME280;6627;50.920;12.050;2022-09-13T03:04:32;98216.34;;;23.42;48.55
13124;BME280;6627;50.920;12.050;2022-09-13T03:07:01;98115.06;;;22.64;49.44
13124;BME280;6627;50.920;12.050;2022-09-13T03:09:29;98128.06;;;22.71;49.87
13124;BME280;6627;50.920;12.050;2022-09-13T03:12:33;98124.56;;;22.27;51.30
13124;BME280;6627;50.920;12.050;2022-09-13T03:15:13;98175.00;;;22.67;51.06
13124;BME280;6627;50.920;12.050;2022-09-13T03:17:54;98121.78;;;22.31;50.75
13124;BME280;6627;50.920;12.050;2022-09-13T03:20:40;98188.38;;;22.86;50.48
13124;BME280;6627;50.920;12.050;2022-09-13T03:23:29;98153.72;;;22.50;50.47
13124;BME280;6627;50.920;12.050;2022-09-13T03:26:19;98216.81;;;23.12;50.10
13124;BME280;6627;50.920;12.050;2022-09-13T03:29:03;98220.31;;;23.23;49.56
13124;BME280;6627;50.920;12.050;2022-09-13T03:31:36;98209.69;;;23.07;49.75
13124;BME280;6627;50.920;12.050;2022-09-13T03:34:15;98220.72;;;23.18;49.72
13124;BME280;6627;50.920;12.050;2022-09-13T03:36:53;98218.31;;;23.38;48.94
13124;BME280;6627;50.920;12.050;2022-09-13T03:39:34;98253.38;;;23.59;48.76
13124;BME280;6627;50.920;12.050;2022-09-13T03:42:11;98192.31;;;23.21;49.10
13124;BME280;6627;50.920;12.050;2022-09-13T03:44:42;98170.22;;;23.10;48.90
13124;BME280;6627;50.920;12.050;2022-09-13T03:47:13;98169.47;;;23.03;49.31
13124;BME280;6627;50.920;12.050;2022-09-13T03:49:43;98183.28;;;22.99;49.93
13124;BME280;6627;50.920;12.050;2022-09-13T03:52:12;98124.16;;;22.32;50.82
13124;BME280;6627;50.920;12.050;2022-09-13T03:54:41;98149.72;;;22.79;49.36
13124;BME280;6627;50.920;12.050;2022-09-13T03:57:11;98070.91;;;21.92;50.56
13124;BME280;6627;50.920;12.050;2022-09-13T03:59:43;98069.34;;;22.06;50.14
13124;BME280;6627;50.920;12.050;2022-09-13T04:02:13;98127.28;;;22.49;49.99
13124;BME280;6627;50.920;12.050;2022-09-13T04:04:42;98179.69;;;23.06;48.85
13124;BME280;6627;50.920;12.050;2022-09-13T04:07:13;98145.03;;;22.69;49.15
13124;BME280;6627;50.920;12.050;2022-09-13T04:09:41;98154.09;;;22.66;49.83
13124;BME280;6627;50.920;12.050;2022-09-13T04:12:08;98175.00;;;23.03;49.41
13124;BME280;6627;50.920;12.050;2022-09-13T04:14:36;98204.97;;;23.08;49.75
13124;BME280;6627;50.920;12.050;2022-09-13T04:17:04;98161.56;;;22.80;50.01
13124;BME280;6627;50.920;12.050;2022-09-13T04:19:32;98227.72;;;23.62;48.64
13124;BME280;6627;50.920;12.050;2022-09-13T04:21:59;98080.00;;;22.25;49.96
13124;BME280;6627;50.920;12.050;2022-09-13T04:24:28;98155.25;;;22.86;49.91
13124;BME280;6627;50.920;12.050;2022-09-13T04:26:57;98161.56;;;22.87;50.15
13124;BME280;6627;50.920;12.050;2022-09-13T04:29:26;98218.28;;;23.56;48.69
13124;BME280;6627;50.920;12.050;2022-09-13T04:31:54;98106.78;;;22.64;49.86
13124;BME280;6627;50.920;12.050;2022-09-13T04:34:21;98188.38;;;22.86;50.16
13124;BME280;6627;50.920;12.050;2022-09-13T04:36:51;98244.69;;;23.71;48.47
13124;BME280;6627;50.920;12.050;2022-09-13T04:39:19;98234.13;;;23.23;49.32
13124;BME280;6627;50.920;12.050;2022-09-13T04:41:48;98103.22;;;22.53;50.37
13124;BME280;6627;50.920;12.050;2022-09-13T04:44:19;98125.31;;;22.53;50.76
13124;BME280;6627;50.920;12.050;2022-09-13T04:46:48;98245.91;;;23.66;49.01
13124;BME280;6627;50.920;12.050;2022-09-13T04:49:17;98224.97;;;23.69;48.40
13124;BME280;6627;50.920;12.050;2022-09-13T04:51:45;98157.63;;;22.95;49.50
13124;BME280;6627;50.920;12.050;2022-09-13T04:54:13;98258.94;;;23.73;48.79
13124;BME280;6627;50.920;12.050;2022-09-13T04:56:41;98161.97;;;23.07;48.75
13124;BME280;6627;50.920;12.050;2022-09-13T04:59:10;98202.56;;;23.17;49.96
13124;BME280;6627;50.920;12.050;2022-09-13T05:01:39;98204.94;;;23.29;49.65
13124;BME280;6627;50.920;12.050;2022-09-13T05:04:08;98298.16;;;24.38;47.61
13124;BME280;6627;50.920;12.050;2022-09-13T05:06:36;98237.09;;;23.89;47.95
13124;BME280;6627;50.920;12.050;2022-09-13T05:09:04;98194.59;;;23.48;48.50
13124;BME280;6627;50.920;12.050;2022-09-13T05:11:32;98195.38;;;23.45;48.58
13124;BME280;6627;50.920;12.050;2022-09-13T05:14:00;98116.56;;;23.01;48.86
13124;BME280;6627;50.920;12.050;2022-09-13T05:16:30;98199.41;;;23.22;49.59
13124;BME280;6627;50.920;12.050;2022-09-13T05:19:00;98256.94;;;23.70;49.42
13124;BME280;6627;50.920;12.050;2022-09-13T05:21:28;98234.78;;;23.77;48.58
13124;BME280;6627;50.920;12.050;2022-09-13T05:23:56;98237.97;;;23.72;48.98
13124;BME280;6627;50.920;12.050;2022-09-13T05:26:26;98213.91;;;23.69;48.55
13124;BME280;6627;50.920;12.050;2022-09-13T05:28:56;98250.44;;;24.12;47.80
13124;BME280;6627;50.920;12.050;2022-09-13T05:31:26;98278.69;;;24.56;46.99
13124;BME280;6627;50.920;12.050;2022-09-13T05:33:59;98187.47;;;23.64;48.35
13124;BME280;6627;50.920;12.050;2022-09-13T05:36:27;98201.59;;;23.77;48.44
13124;BME280;6627;50.920;12.050;2022-09-13T05:38:55;98159.16;;;23.17;49.60
13124;BME280;6627;50.920;12.050;2022-09-13T05:41:23;98192.94;;;23.68;49.24
13124;BME280;6627;50.920;12.050;2022-09-13T05:43:51;98266.69;;;24.03;49.46
13124;BME280;6627;50.920;12.050;2022-09-13T05:46:20;98206.31;;;23.87;48.34
13124;BME280;6627;50.920;12.050;2022-09-13T05:48:48;98344.47;;;24.97;47.42
13124;BME280;6627;50.920;12.050;2022-09-13T05:51:19;98295.75;;;24.47;47.79
13124;BME280;6627;50.920;12.050;2022-09-13T05:53:49;98176.41;;;23.54;48.75
13124;BME280;6627;50.920;12.050;2022-09-13T05:56:19;98256.06;;;23.95;49.50
13124;BME280;6627;50.920;12.050;2022-09-13T05:58:48;98308.56;;;24.82;47.60
13124;BME280;6627;50.920;12.050;2022-09-13T06:01:18;98221.97;;;24.15;48.34
13124;BME280;6627;50.920;12.050;2022-09-13T06:03:47;98298.34;;;24.72;47.70
13124;BME280;6627;50.920;12.050;2022-09-13T06:06:17;98273.22;;;24.49;47.99
13124;BME280;6627;50.920;12.050;2022-09-13T06:08:45;98191.78;;;23.62;49.52
13124;BME280;6627;50.920;12.050;2022-09-13T06:11:14;98178.78;;;23.55;49.40
13124;BME280;6627;50.920;12.050;2022-09-13T06:14:01;98235.47;;;23.99;49.63
13124;BME280;6627;50.920;12.050;2022-09-13T06:16:28;98296.38;;;24.73;48.14
13124;BME280;6627;50.920;12.050;2022-09-13T06:18:56;98236.84;;;24.43;48.13
13124;BME280;6627;50.920;12.050;2022-09-13T06:21:25;98263.72;;;24.42;49.04
13124;BME280;6627;50.920;12.050;2022-09-13T06:23:53;98293.81;;;24.40;49.42
13124;BME280;6627;50.920;12.050;2022-09-13T06:26:24;98237.25;;;24.34;48.65
13124;BME280;6627;50.920;12.050;2022-09-13T06:28:54;98285.72;;;24.71;48.73
13124;BME280;6627;50.920;12.050;2022-09-13T06:31:24;98287.31;;;24.69;47.99
13124;BME280;6627;50.920;12.050;2022-09-13T06:33:56;98196.84;;;23.81;49.55
13124;BME280;6627;50.920;12.050;2022-09-13T06:36:25;98340.03;;;25.13;48.14
13124;BME280;6627;50.920;12.050;2022-09-13T06:38:53;98291.81;;;24.97;47.72
13124;BME280;6627;50.920;12.050;2022-09-13T06:41:23;98279.25;;;24.88;47.86
13124;BME280;6627;50.920;12.050;2022-09-13T06:43:53;98268.00;;;24.58;48.77
13124;BME280;6627;50.920;12.050;2022-09-13T06:46:20;98261.13;;;24.77;48.27
13124;BME280;6627;50.920;12.050;2022-09-13T06:48:48;98252.38;;;24.19;49.90
13124;BME280;6627;50.920;12.050;2022-09-13T06:51:18;98354.75;;;25.52;47.67
13124;BME280;6627;50.920;12.050;2022-09-13T06:53:49;98428.34;;;26.42;46.36
13124;BME280;6627;50.920;12.050;2022-09-13T06:56:21;98290.75;;;25.35;47.12
13124;BME280;6627;50.920;12.050;2022-09-13T06:58:54;98365.59;;;25.80;47.36
13124;BME280;6627;50.920;12.050;2022-09-13T07:01:25;98339.94;;;25.69;47.52
13124;BME280;6627;50.920;12.050;2022-09-13T07:03:57;98387.13;;;26.45;46.27
13124;BME280;6627;50.920;12.050;2022-09-13T07:06:28;98334.66;;;25.85;46.91
13124;BME280;6627;50.920;12.050;2022-09-13T07:08:59;98224.91;;;24.53;49.99
13124;BME280;6627;50.920;12.050;2022-09-13T07:11:30;98286.69;;;24.99;49.84
13124;BME280;6627;50.920;12.050;2022-09-13T07:13:59;98365.16;;;25.40;49.16
13124;BME280;6627;50.920;12.050;2022-09-13T07:16:30;98324.63;;;25.54;48.10
13124;BME280;6627;50.920;12.050;2022-09-13T07:19:01;98338.88;;;25.56;48.66
13124;BME280;6627;50.920;12.050;2022-09-13T07:21:31;98300.66;;;24.84;50.43
13124;BME280;6627;50.920;12.050;2022-09-13T07:24:01;98413.19;;;25.79;49.54
13124;BME280;6627;50.920;12.050;2022-09-13T07:26:29;98392.34;;;26.01;48.37
13124;BME280;6627;50.920;12.050;2022-09-13T07:29:01;98321.38;;;25.21;49.92
13124;BME280;6627;50.920;12.050;2022-09-13T07:31:31;98384.53;;;25.89;48.99
13124;BME280;6627;50.920;12.050;2022-09-13T07:34:01;98388.94;;;25.86;49.72
13124;BME280;6627;50.920;12.050;2022-09-13T07:36:32;98356.31;;;25.53;50.55
13124;BME280;6627;50.920;12.050;2022-09-13T07:39:02;98379.31;;;25.50;50.93
13124;BME280;6627;50.920;12.050;2022-09-13T07:41:33;98296.00;;;24.71;52.53
13124;BME280;6627;50.920;12.050;2022-09-13T07:44:01;98316.66;;;24.59;53.31
13124;BME280;6627;50.920;12.050;2022-09-13T07:46:30;98423.16;;;25.69;51.56
13124;BME280;6627;50.920;12.050;2022-09-13T07:49:00;98362.38;;;24.88;53.23
13124;BME280;6627;50.920;12.050;2022-09-13T07:51:29;98449.06;;;25.52;52.69
13124;BME280;6627;50.920;12.050;2022-09-13T07:53:59;98545.09;;;26.35;51.76
13124;BME280;6627;50.920;12.050;2022-09-13T07:56:30;98485.13;;;26.00;52.06
13124;BME280;6627;50.920;12.050;2022-09-13T07:59:00;98519.47;;;26.58;50.81
13124;BME280;6627;50.920;12.050;2022-09-13T08:01:33;98474.47;;;25.99;51.68
13124;BME280;6627;50.920;12.050;2022-09-13T08:04:03;98341.09;;;24.75;53.87
13124;BME280;6627;50.920;12.050;2022-09-13T08:06:32;98346.72;;;24.57;55.01
13124;BME280;6627;50.920;12.050;2022-09-13T08:09:00;98460.00;;;25.70;53.56
13124;BME280;6627;50.920;12.050;2022-09-13T08:11:34;98517.66;;;26.45;52.28
13124;BME280;6627;50.920;12.050;2022-09-13T08:14:03;98519.50;;;26.55;52.39
13124;BME280;6627;50.920;12.050;2022-09-13T08:16:32;98494.81;;;26.64;51.32
13124;BME280;6627;50.920;12.050;2022-09-13T08:19:03;98522.41;;;26.78;51.33
13124;BME280;6627;50.920;12.050;2022-09-13T08:21:35;98559.03;;;27.38;50.77
13124;BME280;6627;50.920;12.050;2022-09-13T08:24:04;98538.59;;;27.21;50.76
13124;BME280;6627;50.920;12.050;2022-09-13T08:26:34;98583.47;;;28.08;49.04
13124;BME280;6627;50.920;12.050;2022-09-13T08:29:05;98481.22;;;27.34;49.60
13124;BME280;6627;50.920;12.050;2022-09-13T08:31:33;98533.47;;;28.01;48.69
13124;BME280;6627;50.920;12.050;2022-09-13T08:34:01;98290.25;;;25.85;51.12
13124;BME280;6627;50.920;12.050;2022-09-13T08:36:29;98393.38;;;26.52;50.49
13124;BME280;6627;50.920;12.050;2022-09-13T08:38:59;98424.72;;;26.53;51.78
13124;BME280;6627;50.920;12.050;2022-09-13T08:41:49;98531.28;;;27.88;49.26
13124;BME280;6627;50.920;12.050;2022-09-13T08:44:26;98394.16;;;26.53;50.83
13124;BME280;6627;50.920;12.050;2022-09-13T08:47:06;98407.16;;;26.90;50.38
13124;BME280;6627;50.920;12.050;2022-09-13T08:49:43;98465.91;;;27.50;50.04
13124;BME280;6627;50.920;12.050;2022-09-13T08:52:27;98400.31;;;27.25;49.09
13124;BME280;6627;50.920;12.050;2022-09-13T08:54:56;98446.53;;;27.66;48.97
13124;BME280;6627;50.920;12.050;2022-09-13T08:57:37;98378.09;;;26.67;50.31
13124;BME280;6627;50.920;12.050;2022-09-13T09:00:18;98429.41;;;27.17;49.82
13124;BME280;6627;50.920;12.050;2022-09-13T09:03:06;98353.91;;;26.91;49.38
13124;BME280;6627;50.920;12.050;2022-09-13T09:05:44;98499.63;;;28.26;48.29
13124;BME280;6627;50.920;12.050;2022-09-13T09:08:27;98489.63;;;28.52;47.40
13124;BME280;6627;50.920;12.050;2022-09-13T09:11:06;98499.34;;;28.83;46.27
13124;BME280;6627;50.920;12.050;2022-09-13T09:13:47;98555.22;;;29.56;45.08
13124;BME280;6627;50.920;12.050;2022-09-13T09:16:32;98362.94;;;28.56;44.93
13124;BME280;6627;50.920;12.050;2022-09-13T09:19:13;98419.09;;;29.11;44.85
13124;BME280;6627;50.920;12.050;2022-09-13T09:21:45;98383.81;;;28.84;44.98
13124;BME280;6627;50.920;12.050;2022-09-13T09:24:20;98409.50;;;29.12;44.35
13124;BME280;6627;50.920;12.050;2022-09-13T09:26:48;98503.06;;;29.69;45.53
13124;BME280;6627;50.920;12.050;2022-09-13T09:29:21;98396.22;;;29.00;45.25
13124;BME280;6627;50.920;12.050;2022-09-13T09:32:05;98346.63;;;28.15;46.65
13124;BME280;6627;50.920;12.050;2022-09-13T09:34:54;98385.16;;;28.20;47.44
13124;BME280;6627;50.920;12.050;2022-09-13T09:37:30;98424.63;;;28.15;48.68
13124;BME280;6627;50.920;12.050;2022-09-13T09:40:01;98501.91;;;28.74;47.94
13124;BME280;6627;50.920;12.050;2022-09-13T09:42:40;98461.28;;;28.33;48.91
13124;BME280;6627;50.920;12.050;2022-09-13T09:45:25;98487.63;;;29.28;46.17
13124;BME280;6627;50.920;12.050;2022-09-13T09:47:55;98433.78;;;28.55;47.30
13124;BME280;6627;50.920;12.050;2022-09-13T09:50:32;98565.38;;;29.99;45.24
13124;BME280;6627;50.920;12.050;2022-09-13T09:53:06;98459.88;;;29.90;43.32
13124;BME280;6627;50.920;12.050;2022-09-13T09:55:43;98370.78;;;28.98;44.96
13124;BME280;6627;50.920;12.050;2022-09-13T09:58:14;98430.81;;;29.87;43.35
13124;BME280;6627;50.920;12.050;2022-09-13T10:00:55;98514.41;;;30.85;42.18
13124;BME280;6627;50.920;12.050;2022-09-13T10:03:25;98399.84;;;30.69;41.68
13124;BME280;6627;50.920;12.050;2022-09-13T10:06:04;98232.63;;;29.26;43.07
13124;BME280;6627;50.920;12.050;2022-09-13T10:08:35;98280.50;;;29.08;44.15
13124;BME280;6627;50.920;12.050;2022-09-13T10:11:05;98425.16;;;30.78;42.02
13124;BME280;6627;50.920;12.050;2022-09-13T10:13:32;98278.47;;;29.57;43.07
13124;BME280;6627;50.920;12.050;2022-09-13T10:16:04;98350.84;;;29.64;44.70
13124;BME280;6627;50.920;12.050;2022-09-13T10:18:34;98089.03;;;27.74;45.21
13124;BME280;6627;50.920;12.050;2022-09-13T10:21:06;98241.28;;;29.15;43.26
13124;BME280;6627;50.920;12.050;2022-09-13T10:23:35;98343.78;;;29.60;43.26
13124;BME280;6627;50.920;12.050;2022-09-13T10:26:09;98295.34;;;29.96;41.50
13124;BME280;6627;50.920;12.050;2022-09-13T10:28:45;98300.47;;;29.84;42.27
13124;BME280;6627;50.920;12.050;2022-09-13T10:31:20;98316.94;;;30.08;41.55
13124;BME280;6627;50.920;12.050;2022-09-13T10:33:59;98371.56;;;31.05;40.15
13124;BME280;6627;50.920;12.050;2022-09-13T10:36:33;98225.41;;;29.86;42.26
13124;BME280;6627;50.920;12.050;2022-09-13T10:39:04;98285.50;;;30.46;40.93
13124;BME280;6627;50.920;12.050;2022-09-13T10:41:36;98245.00;;;30.12;40.89
13124;BME280;6627;50.920;12.050;2022-09-13T10:44:29;98283.91;;;30.19;42.02
13124;BME280;6627;50.920;12.050;2022-09-13T10:47:03;98329.06;;;30.85;41.08
13124;BME280;6627;50.920;12.050;2022-09-13T10:49:38;98325.59;;;30.94;40.47
13124;BME280;6627;50.920;12.050;2022-09-13T10:52:32;98123.22;;;30.02;40.60
13124;BME280;6627;50.920;12.050;2022-09-13T10:55:31;98187.56;;;30.11;41.30
13124;BME280;6627;50.920;12.050;2022-09-13T10:58:16;98092.34;;;28.67;44.18
13124;BME280;6627;50.920;12.050;2022-09-13T11:01:01;98050.28;;;28.16;44.31
13124;BME280;6627;50.920;12.050;2022-09-13T11:03:52;98149.94;;;28.41;44.79
13124;BME280;6627;50.920;12.050;2022-09-13T11:06:33;98064.97;;;28.16;43.62
13124;BME280;6627;50.920;12.050;2022-09-13T11:09:11;98142.59;;;28.63;43.17
13124;BME280;6627;50.920;12.050;2022-09-13T11:11:49;98189.88;;;29.00;43.13
13124;BME280;6627;50.920;12.050;2022-09-13T11:14:41;98202.06;;;28.89;43.70
13124;BME280;6627;50.920;12.050;2022-09-13T11:17:28;98279.31;;;29.83;42.17
13124;BME280;6627;50.920;12.050;2022-09-13T11:20:19;98149.94;;;28.74;43.41
13124;BME280;6627;50.920;12.050;2022-09-13T11:26:32;98295.59;;;29.72;41.08
13124;BME280;6627;50.920;12.050;2022-09-13T11:29:16;98211.19;;;29.52;41.85
13124;BME280;6627;50.920;12.050;2022-09-13T11:31:58;98131.53;;;28.76;42.97
13124;BME280;6627;50.920;12.050;2022-09-13T11:34:50;98198.16;;;29.49;41.70
13124;BME280;6627;50.920;12.050;2022-09-13T11:37:41;98396.31;;;30.81;41.02
13124;BME280;6627;50.920;12.050;2022-09-13T11:40:28;98406.66;;;31.83;38.53
13124;BME280;6627;50.920;12.050;2022-09-13T11:43:21;98263.75;;;31.61;37.56
13124;BME280;6627;50.920;12.050;2022-09-13T11:46:06;98242.72;;;31.56;38.03
13124;BME280;6627;50.920;12.050;2022-09-13T11:49:02;98166.31;;;31.12;37.48
13124;BME280;6627;50.920;12.050;2022-09-13T11:51:47;98132.34;;;31.01;37.83
13124;BME280;6627;50.920;12.050;2022-09-13T11:54:34;98243.84;;;31.81;37.79
13124;BME280;6627;50.920;12.050;2022-09-13T11:57:10;98184.66;;;31.48;38.73
13124;BME280;6627;50.920;12.050;2022-09-13T11:59:44;98178.53;;;31.62;37.31
13124;BME280;6627;50.920;12.050;2022-09-13T12:02:20;98133.91;;;31.36;38.13
13124;BME280;6627;50.920;12.050;2022-09-13T12:04:55;98256.91;;;32.50;36.83
13124;BME280;6627;50.920;12.050;2022-09-13T12:07:33;98134.75;;;31.77;36.60
13124;BME280;6627;50.920;12.050;2022-09-13T12:10:14;98227.00;;;32.56;36.57
13124;BME280;6627;50.920;12.050;2022-09-13T12:12:45;98022.59;;;31.40;36.57
13124;BME280;6627;50.920;12.050;2022-09-13T12:15:24;98106.38;;;31.88;37.36
13124;BME280;6627;50.920;12.050;2022-09-13T12:18:03;98172.78;;;32.50;36.15
13124;BME280;6627;50.920;12.050;2022-09-13T12:20:36;98168.66;;;32.32;36.48
13124;BME280;6627;50.920;12.050;2022-09-13T12:23:12;98250.88;;;33.19;35.64
13124;BME280;6627;50.920;12.050;2022-09-13T12:25:50;98038.50;;;31.84;36.18
13124;BME280;6627;50.920;12.050;2022-09-13T12:28:25;97980.06;;;31.02;37.60
13124;BME280;6627;50.920;12.050;2022-09-13T12:30:58;98061.91;;;31.68;36.22
13124;BME280;6627;50.920;12.050;2022-09-13T12:33:27;98019.78;;;31.40;36.69
13124;BME280;6627;50.920;12.050;2022-09-13T12:36:33;98152.75;;;32.29;36.57
13124;BME280;6627;50.920;12.050;2022-09-13T12:39:28;98053.69;;;31.43;36.71
13124;BME280;6627;50.920;12.050;2022-09-13T12:45:34;97988.88;;;31.84;35.49
13124;BME280;6627;50.920;12.050;2022-09-13T12:48:31;97913.66;;;31.24;36.65
13124;BME280;6627;50.920;12.050;2022-09-13T12:51:22;98107.38;;;32.62;35.15
13124;BME280;6627;50.920;12.050;2022-09-13T12:54:23;98120.50;;;33.29;34.00
13124;BME280;6627;50.920;12.050;2022-09-13T12:57:18;97842.56;;;31.44;34.66
13124;BME280;6627;50.920;12.050;2022-09-13T13:00:11;97907.81;;;32.08;34.23
13124;BME280;6627;50.920;12.050;2022-09-13T13:02:50;97854.56;;;31.81;34.48
13124;BME280;6627;50.920;12.050;2022-09-13T13:05:26;97989.25;;;32.97;33.06
13124;BME280;6627;50.920;12.050;2022-09-13T13:07:59;97945.66;;;32.77;33.27
13124;BME280;6627;50.920;12.050;2022-09-13T13:10:31;97889.63;;;32.50;33.36
13124;BME280;6627;50.920;12.050;2022-09-13T13:13:13;98044.66;;;33.57;33.50
13124;BME280;6627;50.920;12.050;2022-09-13T13:16:19;98028.47;;;33.24;34.52
13124;BME280;6627;50.920;12.050;2022-09-13T13:18:50;98019.44;;;33.29;33.97
13124;BME280;6627;50.920;12.050;2022-09-13T13:21:35;97926.97;;;32.65;33.92
13124;BME280;6627;50.920;12.050;2022-09-13T13:24:43;97801.16;;;31.48;35.29
13124;BME280;6627;50.920;12.050;2022-09-13T13:27:41;97925.41;;;32.09;35.34
13124;BME280;6627;50.920;12.050;2022-09-13T13:30:50;98094.56;;;33.62;33.90
13124;BME280;6627;50.920;12.050;2022-09-13T13:33:25;97998.63;;;32.75;34.48
13124;BME280;6627;50.920;12.050;2022-09-13T13:35:55;97931.34;;;32.38;34.86
13124;BME280;6627;50.920;12.050;2022-09-13T13:38:47;97837.41;;;31.02;37.09
13124;BME280;6627;50.920;12.050;2022-09-13T13:41:52;97847.19;;;31.47;35.90
13124;BME280;6627;50.920;12.050;2022-09-13T13:45:24;97979.16;;;32.44;34.88
13124;BME280;6627;50.920;12.050;2022-09-13T13:48:11;98041.59;;;33.27;33.45
13124;BME280;6627;50.920;12.050;2022-09-13T13:51:27;97949.88;;;32.54;34.46
13124;BME280;6627;50.920;12.050;2022-09-13T13:54:14;97858.16;;;32.00;34.89
13124;BME280;6627;50.920;12.050;2022-09-13T13:56:50;97979.78;;;32.67;34.13